createdAt,value
2022-12-08T00:00:10.144Z,83.00
2022-12-08T00:03:04.040Z,83.92
2022-12-08T00:05:51.758Z,83.55
2022-12-08T00:08:38.916Z,82.96
2022-12-08T00:11:13.508Z,83.90
2022-12-08T00:13:42.965Z,83.60
2022-12-08T00:16:12.385Z,83.71
2022-12-08T00:18:41.627Z,82.84
2022-12-08T00:21:10.705Z,83.03
2022-12-08T00:23:43.647Z,83.52
2022-12-08T00:26:12.648Z,83.04
2022-12-08T00:28:44.387Z,82.89
2022-12-08T00:31:13.954Z,82.57
2022-12-08T00:33:43.193Z,83.40
2022-12-08T00:36:16.068Z,83.19
2022-12-08T00:38:47.740Z,82.42
2022-12-08T00:41:18.860Z,83.44
2022-12-08T00:43:47.636Z,82.83
2022-12-08T00:46:16.372Z,83.06
2022-12-08T00:48:46.492Z,82.85
2022-12-08T00:51:15.167Z,82.57
2022-12-08T00:53:45.579Z,82.32
2022-12-08T00:56:14.354Z,82.65
2022-12-08T00:58:45.796Z,83.05
2022-12-08T01:01:16.279Z,82.46
2022-12-08T01:03:47.558Z,83.32
2022-12-08T01:06:16.448Z,83.10
2022-12-08T01:08:45.749Z,83.07
2022-12-08T01:11:16.731Z,82.47
2022-12-08T01:13:47.416Z,82.93
2022-12-08T01:16:24.248Z,82.96
2022-12-08T01:18:56.369Z,83.43
2022-12-08T01:21:29.226Z,83.08
2022-12-08T01:24:02.344Z,82.67
2022-12-08T01:26:31.344Z,82.37
2022-12-08T01:29:01.077Z,83.30
2022-12-08T01:31:29.953Z,83.22
2022-12-08T01:33:58.727Z,83.36
2022-12-08T01:36:29.664Z,83.03
2022-12-08T01:39:05.383Z,83.03
2022-12-08T01:41:36.972Z,83.49
2022-12-08T01:44:43.543Z,82.65
2022-12-08T01:47:12.808Z,82.67
2022-12-08T01:52:16.299Z,82.73
2022-12-08T01:54:49.664Z,82.80
2022-12-08T01:57:24.184Z,83.05
2022-12-08T01:59:59.835Z,82.89
2022-12-08T02:02:38.539Z,83.02
2022-12-08T02:05:09.597Z,83.20
2022-12-08T02:07:38.855Z,83.41
2022-12-08T02:10:15.512Z,83.37
2022-12-08T02:12:44.873Z,83.50
2022-12-08T02:15:15.993Z,83.34
2022-12-08T02:17:57.128Z,82.97
2022-12-08T02:20:53.840Z,82.58
2022-12-08T02:23:35.100Z,83.27
2022-12-08T02:26:35.370Z,83.00
2022-12-08T02:29:29.868Z,83.04
2022-12-08T02:32:14.844Z,82.77
2022-12-08T02:34:50.211Z,82.31
2022-12-08T02:37:26.733Z,83.16
2022-12-08T02:40:03.425Z,83.03
2022-12-08T02:42:38.131Z,82.84
2022-12-08T02:45:12.788Z,82.58
2022-12-08T02:47:42.819Z,82.95
2022-12-08T02:50:12.638Z,82.70
2022-12-08T02:52:56.021Z,83.17
2022-12-08T02:55:30.093Z,82.29
2022-12-08T02:58:29.267Z,82.94
2022-12-08T03:01:15.924Z,82.56
2022-12-08T03:03:51.537Z,82.74
2022-12-08T03:06:32.515Z,83.06
2022-12-08T03:09:10.077Z,82.60
2022-12-08T03:11:44.444Z,82.89
2022-12-08T03:14:17.530Z,82.31
2022-12-08T03:16:49.621Z,82.31
2022-12-08T03:19:23.493Z,82.40
2022-12-08T03:22:00.022Z,82.35
2022-12-08T03:24:31.977Z,82.68
2022-12-08T03:27:05.869Z,82.85
2022-12-08T03:29:34.880Z,82.65
2022-12-08T03:32:16.266Z,82.49
2022-12-08T03:34:48.057Z,82.73
2022-12-08T03:37:17.103Z,82.65
2022-12-08T03:39:45.846Z,82.08
2022-12-08T03:42:14.992Z,82.80
2022-12-08T03:44:43.847Z,82.31
2022-12-08T03:47:13.142Z,82.89
2022-12-08T03:49:41.871Z,82.06
2022-12-08T03:52:13.556Z,82.34
2022-12-08T03:54:42.449Z,82.61
2022-12-08T03:57:11.178Z,82.11
2022-12-08T04:02:07.822Z,83.13
2022-12-08T04:04:36.527Z,82.52
2022-12-08T04:07:06.045Z,82.18
2022-12-08T04:09:34.768Z,82.20
2022-12-08T04:12:06.612Z,82.58
2022-12-08T04:14:35.415Z,82.87
2022-12-08T04:17:07.960Z,82.70
2022-12-08T04:19:40.475Z,82.87
2022-12-08T04:22:09.265Z,82.83
2022-12-08T04:24:38.113Z,82.23
2022-12-08T04:27:07.972Z,82.89
2022-12-08T04:29:36.972Z,82.35
2022-12-08T04:32:06.445Z,82.93
2022-12-08T04:34:35.119Z,82.64
2022-12-08T04:37:05.818Z,83.26
2022-12-08T04:39:34.504Z,82.71
2022-12-08T04:42:04.316Z,82.47
2022-12-08T04:44:33.006Z,82.95
2022-12-08T04:47:03.893Z,82.51
2022-12-08T04:49:32.867Z,82.53
2022-12-08T04:52:01.656Z,82.29
2022-12-08T04:54:31.279Z,83.09
2022-12-08T04:57:00.004Z,82.95
2022-12-08T04:59:28.742Z,82.99
2022-12-08T05:01:57.986Z,82.57
2022-12-08T05:04:27.151Z,82.21
2022-12-08T05:06:58.161Z,82.46
2022-12-08T05:09:27.707Z,82.73
2022-12-08T05:11:56.527Z,82.59
2022-12-08T05:14:25.360Z,81.94
2022-12-08T05:16:54.123Z,82.16
2022-12-08T05:19:23.469Z,81.95
2022-12-08T05:21:52.308Z,82.54
2022-12-08T05:24:21.139Z,82.58
2022-12-08T05:26:49.783Z,82.61
2022-12-08T05:29:19.032Z,82.54
2022-12-08T05:31:47.768Z,82.63
2022-12-08T05:34:16.541Z,82.15
2022-12-08T05:36:45.241Z,82.18
2022-12-08T05:39:17.665Z,82.34
2022-12-08T05:41:47.623Z,82.66
2022-12-08T05:44:17.131Z,82.83
2022-12-08T05:46:45.999Z,82.49
2022-12-08T05:49:15.011Z,82.23
2022-12-08T05:51:44.232Z,82.86
2022-12-08T05:54:13.680Z,82.77
2022-12-08T05:56:42.592Z,82.28
2022-12-08T05:59:14.114Z,82.81
2022-12-08T06:01:42.903Z,82.57
2022-12-08T06:04:11.894Z,82.95
2022-12-08T06:06:40.677Z,82.55
2022-12-08T06:09:09.533Z,82.00
2022-12-08T06:11:40.840Z,83.07
2022-12-08T06:14:12.597Z,82.67
2022-12-08T06:16:41.445Z,82.23
2022-12-08T06:19:10.438Z,83.07
2022-12-08T06:21:39.833Z,82.60
2022-12-08T06:24:09.131Z,83.00
2022-12-08T06:26:40.943Z,82.12
2022-12-08T06:29:09.619Z,82.39
2022-12-08T06:31:39.049Z,82.62
2022-12-08T06:34:07.871Z,83.07
2022-12-08T06:36:36.971Z,82.58
2022-12-08T06:39:09.248Z,81.95
2022-12-08T06:41:53.627Z,82.35
2022-12-08T06:44:24.776Z,82.83
2022-12-08T06:46:53.583Z,82.24
2022-12-08T06:49:22.549Z,82.13
2022-12-08T06:51:51.279Z,82.20
2022-12-08T06:54:20.126Z,82.11
2022-12-08T06:56:49.550Z,82.37
2022-12-08T06:59:19.044Z,82.51
2022-12-08T07:01:48.014Z,82.29
2022-12-08T07:04:17.556Z,82.32
2022-12-08T07:06:46.450Z,82.04
2022-12-08T07:09:16.691Z,81.77
2022-12-08T07:11:45.456Z,81.96
2022-12-08T07:14:14.243Z,82.54
2022-12-08T07:16:43.813Z,81.64
2022-12-08T07:19:13.043Z,81.93
2022-12-08T07:21:42.419Z,82.03
2022-12-08T07:24:12.580Z,81.87
2022-12-08T07:26:42.841Z,81.50
2022-12-08T07:29:11.886Z,82.12
2022-12-08T07:31:40.608Z,81.50
2022-12-08T07:34:12.195Z,81.85
2022-12-08T07:36:41.212Z,81.77
2022-12-08T07:39:10.409Z,81.65
2022-12-08T07:41:40.502Z,82.16
2022-12-08T07:44:10.521Z,81.97
2022-12-08T07:46:39.814Z,82.54
2022-12-08T07:49:08.657Z,81.87
2022-12-08T07:51:42.655Z,82.23
2022-12-08T07:54:12.644Z,81.64
2022-12-08T07:56:41.541Z,82.74
2022-12-08T07:59:10.354Z,81.80
2022-12-08T08:01:39.399Z,81.61
2022-12-08T08:04:08.505Z,82.34
2022-12-08T08:06:39.690Z,82.55
2022-12-08T08:09:09.806Z,82.13
2022-12-08T08:11:38.636Z,81.88
2022-12-08T08:14:07.596Z,82.75
2022-12-08T08:16:41.603Z,82.75
2022-12-08T08:19:10.633Z,82.29
2022-12-08T08:21:46.971Z,81.72
2022-12-08T08:24:17.653Z,81.85
2022-12-08T08:26:46.376Z,82.47
2022-12-08T08:29:15.287Z,82.79
2022-12-08T08:31:44.707Z,82.36
2022-12-08T08:34:13.617Z,81.82
2022-12-08T08:36:42.943Z,82.42
2022-12-08T08:39:13.705Z,82.13
2022-12-08T08:41:45.779Z,82.62
2022-12-08T08:44:15.488Z,82.28
2022-12-08T08:46:44.481Z,82.60
2022-12-08T08:49:14.218Z,82.64
2022-12-08T08:51:43.344Z,81.77
2022-12-08T08:54:13.041Z,81.67
2022-12-08T08:56:41.895Z,82.55
2022-12-08T08:59:15.280Z,81.92
2022-12-08T09:01:44.114Z,81.48
2022-12-08T09:04:13.328Z,81.81
2022-12-08T09:06:42.714Z,80.49
2022-12-08T09:09:12.410Z,81.57
2022-12-08T09:11:44.552Z,81.18
2022-12-08T09:14:14.262Z,81.29
2022-12-08T09:16:43.071Z,81.05
2022-12-08T09:19:12.353Z,81.04
2022-12-08T09:21:43.239Z,81.29
2022-12-08T09:24:17.769Z,80.84
2022-12-08T09:26:46.628Z,80.73
2022-12-08T09:29:17.069Z,81.26
2022-12-08T09:31:46.143Z,81.32
2022-12-08T09:34:15.933Z,81.01
2022-12-08T09:36:44.852Z,80.92
2022-12-08T09:39:14.759Z,81.40
2022-12-08T09:41:50.340Z,80.58
2022-12-08T09:44:40.388Z,80.58
2022-12-08T09:47:18.741Z,81.20
2022-12-08T09:49:56.706Z,81.32
2022-12-08T09:52:33.592Z,81.37
2022-12-08T09:55:12.440Z,81.47
2022-12-08T09:57:41.724Z,80.49
2022-12-08T10:00:15.215Z,80.76
2022-12-08T10:02:48.195Z,80.87
2022-12-08T10:05:21.333Z,80.28
2022-12-08T10:08:01.410Z,80.22
2022-12-08T10:10:42.625Z,80.21
2022-12-08T10:13:22.070Z,80.17
2022-12-08T10:16:07.403Z,80.44
2022-12-08T10:19:02.312Z,80.53
2022-12-08T10:21:34.524Z,80.43
2022-12-08T10:24:16.711Z,81.23
2022-12-08T10:26:50.442Z,81.16
2022-12-08T10:29:26.440Z,80.83
2022-12-08T10:31:59.046Z,80.32
2022-12-08T10:34:28.288Z,81.14
2022-12-08T10:37:00.270Z,81.08
2022-12-08T10:39:38.014Z,80.63
2022-12-08T10:42:21.391Z,80.10
2022-12-08T10:44:58.587Z,78.41
2022-12-08T10:47:35.551Z,76.71
2022-12-08T10:50:17.571Z,76.46
2022-12-08T10:52:56.979Z,76.60
2022-12-08T10:55:26.779Z,78.01
2022-12-08T10:57:55.787Z,78.89
2022-12-08T11:00:28.344Z,79.15
2022-12-08T11:03:01.158Z,79.68
2022-12-08T11:05:34.619Z,79.30
2022-12-08T11:08:06.866Z,79.10
2022-12-08T11:10:39.115Z,79.46
2022-12-08T11:13:19.879Z,79.68
2022-12-08T11:15:49.920Z,79.52
2022-12-08T11:18:28.463Z,80.04
2022-12-08T11:21:12.553Z,79.67
2022-12-08T11:23:48.052Z,79.62
2022-12-08T11:29:04.165Z,80.29
2022-12-08T11:31:44.225Z,79.53
2022-12-08T11:34:22.872Z,79.87
2022-12-08T11:36:56.516Z,79.75
2022-12-08T11:39:31.366Z,79.88
2022-12-08T11:42:04.744Z,79.87
2022-12-08T11:44:42.361Z,79.33
2022-12-08T11:47:17.605Z,80.26
2022-12-08T11:49:53.810Z,79.72
2022-12-08T11:52:27.836Z,80.18
2022-12-08T11:55:02.427Z,79.39
2022-12-08T11:57:31.579Z,80.13
2022-12-08T12:00:15.088Z,79.28
2022-12-08T12:02:54.816Z,79.52
2022-12-08T12:09:01.192Z,80.21
2022-12-08T12:12:13.185Z,80.31
2022-12-08T12:15:31.500Z,79.57
2022-12-08T12:18:14.856Z,80.07
2022-12-08T12:20:54.207Z,80.47
2022-12-08T12:23:39.972Z,79.49
2022-12-08T12:26:21.367Z,79.52
2022-12-08T12:28:59.071Z,80.53
2022-12-08T12:31:40.977Z,80.45
2022-12-08T12:34:18.577Z,80.11
2022-12-08T12:36:56.456Z,80.07
2022-12-08T12:39:30.496Z,79.70
2022-12-08T12:42:01.399Z,79.71
2022-12-08T12:44:43.016Z,79.60
2022-12-08T12:47:55.955Z,80.28
2022-12-08T12:50:45.875Z,80.66
2022-12-08T12:53:50.553Z,80.15
2022-12-08T12:56:50.755Z,80.26
2022-12-08T12:59:35.969Z,80.00
2022-12-08T13:02:19.605Z,80.84
2022-12-08T13:04:57.727Z,80.60
2022-12-08T13:07:32.710Z,80.03
2022-12-08T13:10:14.112Z,80.43
2022-12-08T13:13:01.881Z,80.85
2022-12-08T13:15:36.647Z,79.96
2022-12-08T13:18:18.374Z,80.92
2022-12-08T13:20:52.820Z,80.59
2022-12-08T13:23:45.032Z,80.13
2022-12-08T13:26:20.652Z,80.66
2022-12-08T13:29:14.660Z,80.05
2022-12-08T13:31:50.562Z,80.60
2022-12-08T13:34:30.037Z,80.17
2022-12-08T13:37:09.083Z,81.00
2022-12-08T13:39:46.895Z,80.07
2022-12-08T13:42:25.181Z,80.47
2022-12-08T13:48:27.923Z,80.10
2022-12-08T13:55:06.896Z,80.86
2022-12-08T13:57:09.984Z,80.04
2022-12-08T13:59:47.643Z,80.09
2022-12-08T14:02:27.859Z,80.81
2022-12-08T14:07:49.528Z,80.86
2022-12-08T14:10:22.092Z,80.82
2022-12-08T14:12:56.993Z,80.66
2022-12-08T14:15:28.411Z,80.25
2022-12-08T14:17:59.349Z,80.12
2022-12-08T14:20:51.995Z,81.09
2022-12-08T14:23:23.112Z,81.16
2022-12-08T14:25:52.370Z,80.78
2022-12-08T14:28:25.156Z,80.25
2022-12-08T14:30:57.017Z,80.43
2022-12-08T14:33:26.909Z,81.15
2022-12-08T14:36:01.585Z,80.32
2022-12-08T14:38:40.693Z,81.20
2022-12-08T14:41:13.019Z,81.30
2022-12-08T14:43:46.463Z,80.83
2022-12-08T14:46:28.640Z,81.54
2022-12-08T14:48:59.648Z,80.53
2022-12-08T14:51:33.057Z,81.31
2022-12-08T14:54:09.134Z,80.85
2022-12-08T14:56:48.302Z,81.24
2022-12-08T14:59:22.320Z,81.31
2022-12-08T15:01:52.140Z,81.50
2022-12-08T15:04:26.345Z,80.49
2022-12-08T15:07:02.850Z,81.46
2022-12-08T15:09:35.946Z,81.57
2022-12-08T15:12:08.574Z,81.57
2022-12-08T15:14:42.847Z,80.71
2022-12-08T15:44:00.029Z,81.77
2022-12-08T15:46:52.660Z,80.80
2022-12-08T15:49:29.274Z,80.94
2022-12-08T15:52:11.059Z,81.79
2022-12-08T15:54:44.041Z,81.31
2022-12-08T15:57:44.262Z,81.46
2022-12-08T16:00:53.085Z,81.77
2022-12-08T16:04:08.964Z,81.74
2022-12-08T16:09:28.011Z,81.01
2022-12-08T16:12:15.839Z,81.90
2022-12-08T16:15:47.306Z,81.75
2022-12-08T16:17:37.397Z,81.76
2022-12-08T16:20:16.197Z,81.52
2022-12-08T16:22:59.545Z,81.59
2022-12-08T16:26:00.023Z,81.88
2022-12-08T16:31:22.799Z,82.09
2022-12-08T16:33:52.487Z,81.85
2022-12-08T16:36:23.801Z,81.98
2022-12-08T16:38:56.397Z,81.33
2022-12-08T16:41:46.305Z,81.84
2022-12-08T16:44:21.372Z,81.34
2022-12-08T16:46:53.505Z,82.32
2022-12-08T16:49:24.569Z,82.37
2022-12-08T16:51:53.443Z,82.45
2022-12-08T16:54:25.558Z,82.30
2022-12-08T16:56:54.644Z,82.21
2022-12-08T16:59:23.906Z,82.30
2022-12-08T17:01:52.833Z,81.39
2022-12-08T17:04:31.407Z,81.83
2022-12-08T17:07:01.224Z,82.03
2022-12-08T17:09:31.857Z,82.23
2022-12-08T17:12:04.027Z,81.48
2022-12-08T17:14:34.977Z,81.66
2022-12-08T17:17:04.207Z,81.91
2022-12-08T17:19:33.405Z,82.50
2022-12-08T17:22:02.509Z,81.91
2022-12-08T17:24:32.518Z,81.68
2022-12-08T17:27:03.702Z,81.82
2022-12-08T17:29:33.769Z,81.53
2022-12-08T17:32:02.870Z,81.97
2022-12-08T17:34:32.842Z,81.95
2022-12-08T17:37:07.951Z,81.61
2022-12-08T17:39:38.508Z,81.66
2022-12-08T17:42:09.148Z,82.35
2022-12-08T17:44:41.679Z,82.19
2022-12-08T17:47:16.906Z,81.83
2022-12-08T17:49:47.069Z,81.89
2022-12-08T17:52:16.446Z,81.56
2022-12-08T17:54:48.430Z,81.98
2022-12-08T17:57:17.434Z,81.40
2022-12-08T17:59:46.448Z,82.17
2022-12-08T18:02:18.566Z,82.42
2022-12-08T18:04:47.768Z,81.55
2022-12-08T18:07:16.759Z,81.53
2022-12-08T18:09:52.247Z,82.29
2022-12-08T18:12:23.861Z,81.27
2022-12-08T18:14:53.211Z,82.31
2022-12-08T18:17:22.252Z,82.11
2022-12-08T18:19:54.395Z,82.27
2022-12-08T18:22:23.586Z,82.24
2022-12-08T18:24:52.620Z,81.32
2022-12-08T18:27:22.375Z,82.01
2022-12-08T18:30:03.054Z,82.18
2022-12-08T18:32:38.081Z,81.51
2022-12-08T18:35:17.111Z,81.12
2022-12-08T18:37:47.884Z,82.25
2022-12-08T18:40:19.704Z,81.84
2022-12-08T18:42:48.617Z,81.23
2022-12-08T18:45:22.654Z,81.08
2022-12-08T18:47:52.285Z,81.09
2022-12-08T18:50:21.323Z,81.18
2022-12-08T18:52:52.272Z,81.40
2022-12-08T18:55:22.296Z,81.95
2022-12-08T18:57:51.263Z,81.96
2022-12-08T19:00:21.600Z,81.73
2022-12-08T19:02:52.330Z,81.44
2022-12-08T19:05:21.648Z,80.76
2022-12-08T19:07:51.708Z,81.52
2022-12-08T19:10:20.745Z,81.20
2022-12-08T19:12:51.160Z,81.01
2022-12-08T19:15:22.516Z,80.81
2022-12-08T19:17:54.290Z,81.07
2022-12-08T19:20:26.963Z,80.89
2022-12-08T19:22:59.531Z,81.18
2022-12-08T19:25:28.801Z,80.83
2022-12-08T19:27:57.821Z,80.77
2022-12-08T19:30:26.953Z,81.47
2022-12-08T19:32:57.107Z,80.75
2022-12-08T19:35:25.973Z,81.24
2022-12-08T19:37:54.916Z,81.58
2022-12-08T19:40:43.061Z,80.95
2022-12-08T19:43:38.000Z,80.96
2022-12-08T19:46:10.906Z,81.68
2022-12-08T19:48:49.897Z,80.80
2022-12-08T19:51:22.661Z,81.04
2022-12-08T19:53:51.508Z,81.74
2022-12-08T19:56:20.508Z,81.54
2022-12-08T19:58:49.622Z,81.63
2022-12-08T20:01:19.562Z,80.71
2022-12-08T20:03:48.768Z,81.05
2022-12-08T20:06:19.872Z,81.43
2022-12-08T20:08:50.791Z,80.86
2022-12-08T20:11:19.939Z,80.99
2022-12-08T20:13:51.034Z,81.43
2022-12-08T20:16:23.964Z,80.94
2022-12-08T20:18:56.182Z,81.13
2022-12-08T20:21:25.376Z,80.66
2022-12-08T20:24:05.293Z,81.40
2022-12-08T20:26:40.436Z,80.89
2022-12-08T20:29:14.345Z,81.23
2022-12-08T20:31:49.627Z,80.91
2022-12-08T20:34:22.687Z,81.27
2022-12-08T20:36:56.906Z,80.58
2022-12-08T20:39:26.582Z,81.50
2022-12-08T20:41:59.614Z,81.03
2022-12-08T20:44:29.732Z,81.06
2022-12-08T20:46:58.765Z,81.13
2022-12-08T20:49:34.559Z,80.83
2022-12-08T20:52:04.759Z,80.71
2022-12-08T20:54:37.033Z,81.11
2022-12-08T20:57:06.326Z,80.74
2022-12-08T20:59:36.948Z,81.21
2022-12-08T21:02:19.324Z,81.49
2022-12-08T21:04:48.890Z,81.30
2022-12-08T21:07:21.045Z,81.30
2022-12-08T21:09:55.087Z,81.61
2022-12-08T21:12:25.932Z,80.81
2022-12-08T21:14:55.203Z,80.95
2022-12-08T21:17:28.605Z,81.10
2022-12-08T21:20:00.633Z,81.22
2022-12-08T21:22:30.336Z,81.09
2022-12-08T21:24:59.431Z,82.03
2022-12-08T21:27:28.716Z,81.74
2022-12-08T21:30:00.736Z,81.28
2022-12-08T21:32:30.927Z,80.91
2022-12-08T21:35:06.330Z,81.98
2022-12-08T21:37:36.404Z,81.38
2022-12-08T21:40:11.715Z,81.46
2022-12-08T21:42:44.991Z,82.00
2022-12-08T21:45:16.425Z,81.97
2022-12-08T21:47:51.573Z,81.31
2022-12-08T21:50:25.029Z,80.99
2022-12-08T21:52:56.509Z,82.04
2022-12-08T21:55:26.711Z,81.91
2022-12-08T21:58:00.872Z,81.07
2022-12-08T22:00:30.399Z,81.68
2022-12-08T22:02:59.518Z,82.13
2022-12-08T22:05:31.196Z,81.50
2022-12-08T22:08:00.401Z,81.91
2022-12-08T22:10:29.576Z,81.55
2022-12-08T22:12:58.567Z,81.61
2022-12-08T22:15:32.304Z,81.18
2022-12-08T22:18:01.521Z,81.47
2022-12-08T22:20:30.813Z,81.67
2022-12-08T22:23:00.963Z,81.79
2022-12-08T22:25:32.197Z,81.17
2022-12-08T22:28:01.269Z,81.76
2022-12-08T22:30:35.606Z,81.78
2022-12-08T22:33:07.767Z,82.23
2022-12-08T22:35:37.578Z,81.42
2022-12-08T22:38:06.573Z,82.02
2022-12-08T22:40:35.869Z,81.20
2022-12-08T22:43:05.489Z,81.52
2022-12-08T22:45:34.628Z,81.83
2022-12-08T22:48:09.557Z,81.27
2022-12-08T22:50:38.690Z,82.23
2022-12-08T22:53:10.059Z,82.37
2022-12-08T22:55:42.937Z,81.42
2022-12-08T22:58:13.108Z,81.88
2022-12-08T23:00:42.119Z,81.93
2022-12-08T23:03:14.032Z,81.63
2022-12-08T23:05:43.160Z,82.42
2022-12-08T23:08:17.242Z,81.69
2022-12-08T23:10:47.787Z,82.07
2022-12-08T23:13:17.370Z,82.33
2022-12-08T23:15:46.802Z,82.11
2022-12-08T23:18:18.543Z,82.02
2022-12-08T23:20:50.761Z,82.41
2022-12-08T23:23:24.055Z,82.37
2022-12-08T23:25:53.409Z,81.78
2022-12-08T23:28:24.984Z,81.90
2022-12-08T23:30:59.281Z,81.99
2022-12-08T23:33:31.422Z,81.90
2022-12-08T23:36:00.954Z,82.08
2022-12-08T23:38:33.483Z,82.26
2022-12-08T23:41:09.633Z,82.07
2022-12-08T23:43:45.015Z,81.78
2022-12-08T23:46:15.797Z,81.60
2022-12-08T23:48:45.663Z,82.46
2022-12-08T23:51:17.962Z,82.09
2022-12-08T23:53:49.836Z,81.91
2022-12-08T23:56:24.338Z,81.59
2022-12-08T23:59:01.313Z,82.12
